createdAt,value
2018-08-13T00:00:52.754Z,17.20
2018-08-13T00:03:25.758Z,18.80
2018-08-13T00:05:57.261Z,17.40
2018-08-13T00:08:29.317Z,16.80
2018-08-13T00:11:01.121Z,18.60
2018-08-13T00:13:34.550Z,17.20
2018-08-13T00:16:06.276Z,16.80
2018-08-13T00:18:37.953Z,19.20
2018-08-13T00:21:09.745Z,20.60
2018-08-13T00:23:41.710Z,18.40
2018-08-13T00:26:13.573Z,15.40
2018-08-13T00:28:45.389Z,15.60
2018-08-13T00:31:17.145Z,17.40
2018-08-13T00:33:48.892Z,20.80
2018-08-13T00:36:20.849Z,18.60
2018-08-13T00:38:52.926Z,19.20
2018-08-13T00:41:24.789Z,19.40
2018-08-13T00:43:56.605Z,20.00
2018-08-13T00:46:28.598Z,19.60
2018-08-13T00:49:01.033Z,21.20
2018-08-13T00:51:33.164Z,19.60
2018-08-13T00:54:05.310Z,18.80
2018-08-13T00:56:37.452Z,19.00
2018-08-13T00:59:09.388Z,19.00
2018-08-13T01:01:41.270Z,19.20
2018-08-13T01:04:13.167Z,20.00
2018-08-13T01:06:44.860Z,19.00
2018-08-13T01:09:16.835Z,19.00
2018-08-13T01:11:48.800Z,20.00
2018-08-13T01:14:21.653Z,19.20
2018-08-13T01:16:53.351Z,20.40
2018-08-13T01:19:25.316Z,21.20
2018-08-13T01:21:57.308Z,19.60
2018-08-13T01:24:29.553Z,20.80
2018-08-13T01:27:01.586Z,19.20
2018-08-13T01:29:33.575Z,19.20
2018-08-13T01:32:05.390Z,18.60
2018-08-13T01:34:37.552Z,20.40
2018-08-13T01:37:09.541Z,21.60
2018-08-13T01:39:41.715Z,21.20
2018-08-13T01:42:13.734Z,23.00
2018-08-13T01:44:45.581Z,23.00
2018-08-13T01:47:17.658Z,22.60
2018-08-13T01:49:49.721Z,22.00
2018-08-13T01:52:21.334Z,22.60
2018-08-13T01:54:53.320Z,23.00
2018-08-13T01:57:25.201Z,21.40
2018-08-13T01:59:57.219Z,22.60
2018-08-13T02:02:28.955Z,23.40
2018-08-13T02:05:01.261Z,22.80
2018-08-13T02:07:33.196Z,22.20
2018-08-13T02:10:05.568Z,21.60
2018-08-13T02:12:37.296Z,23.00
2018-08-13T02:15:10.481Z,22.80
2018-08-13T02:17:42.701Z,23.20
2018-08-13T02:20:15.041Z,24.00
2018-08-13T02:22:47.336Z,24.00
2018-08-13T02:25:19.468Z,25.20
2018-08-13T02:27:51.402Z,23.00
2018-08-13T02:30:23.385Z,24.00
2018-08-13T02:32:55.200Z,22.60
2018-08-13T02:35:26.985Z,23.00
2018-08-13T02:37:58.683Z,23.00
2018-08-13T02:40:30.746Z,22.80
2018-08-13T02:43:03.056Z,23.40
2018-08-13T02:45:34.955Z,23.60
2018-08-13T02:48:07.397Z,23.80
2018-08-13T02:50:39.404Z,24.00
2018-08-13T02:53:11.199Z,25.00
2018-08-13T02:55:44.250Z,27.00
2018-08-13T02:58:16.112Z,25.00
2018-08-13T03:00:49.076Z,24.00
2018-08-13T03:03:20.893Z,23.60
2018-08-13T03:05:52.626Z,25.40
2018-08-13T03:08:24.684Z,23.20
2018-08-13T03:10:56.676Z,23.60
2018-08-13T03:13:28.942Z,26.00
2018-08-13T03:16:01.963Z,23.60
2018-08-13T03:18:33.944Z,23.40
2018-08-13T03:21:06.517Z,24.00
2018-08-13T03:23:38.711Z,22.20
2018-08-13T03:26:11.130Z,21.20
2018-08-13T03:28:43.271Z,20.20
2018-08-13T03:31:15.025Z,21.40
2018-08-13T03:33:46.910Z,21.40
2018-08-13T03:36:18.769Z,22.00
2018-08-13T03:38:50.899Z,22.40
2018-08-13T03:41:23.118Z,22.20
2018-08-13T03:43:55.233Z,21.00
2018-08-13T03:46:27.493Z,22.00
2018-08-13T03:48:59.079Z,12.60
2018-08-13T03:51:31.095Z,12.20
2018-08-13T03:54:02.981Z,16.80
2018-08-13T03:56:35.239Z,21.60
2018-08-13T03:59:06.916Z,20.20
2018-08-13T04:01:38.862Z,20.40
2018-08-13T04:04:11.005Z,21.00
2018-08-13T04:06:42.941Z,22.00
2018-08-13T04:09:14.940Z,21.80
2018-08-13T04:11:46.652Z,23.00
2018-08-13T04:14:18.485Z,21.40
2018-08-13T04:17:00.430Z,20.00
2018-08-13T04:19:34.380Z,20.40
2018-08-13T04:22:06.403Z,20.60
2018-08-13T04:24:38.056Z,19.20
2018-08-13T04:27:09.888Z,19.60
2018-08-13T04:29:41.589Z,21.20
2018-08-13T04:32:13.449Z,21.00
2018-08-13T04:34:45.387Z,19.20
2018-08-13T04:37:17.113Z,18.20
2018-08-13T04:39:48.905Z,20.00
2018-08-13T04:42:20.879Z,15.60
2018-08-13T04:44:52.217Z,17.60
2018-08-13T04:47:23.992Z,16.80
2018-08-13T04:49:55.676Z,20.00
2018-08-13T04:52:27.499Z,20.00
2018-08-13T04:54:59.181Z,19.40
2018-08-13T04:57:30.930Z,18.40
2018-08-13T05:00:02.665Z,19.80
2018-08-13T05:02:34.401Z,20.00
2018-08-13T05:05:07.062Z,20.00
2018-08-13T05:07:39.412Z,19.80
2018-08-13T05:10:12.153Z,18.20
2018-08-13T05:12:44.194Z,18.60
2018-08-13T05:15:15.967Z,18.00
2018-08-13T05:17:47.978Z,19.20
2018-08-13T05:20:20.195Z,20.00
2018-08-13T05:22:52.001Z,18.20
2018-08-13T05:25:23.765Z,20.80
2018-08-13T05:27:55.826Z,20.80
2018-08-13T05:30:27.759Z,19.40
2018-08-13T05:32:59.755Z,20.40
2018-08-13T05:35:31.676Z,19.00
2018-08-13T05:38:03.834Z,17.80
2018-08-13T05:40:35.648Z,18.20
2018-08-13T05:43:07.776Z,20.40
2018-08-13T05:45:39.671Z,18.80
2018-08-13T05:48:11.542Z,18.40
2018-08-13T05:50:43.710Z,20.40
2018-08-13T05:53:15.903Z,18.80
2018-08-13T05:55:48.110Z,20.20
2018-08-13T05:58:19.959Z,20.80
2018-08-13T06:00:51.531Z,18.00
2018-08-13T06:03:23.785Z,20.20
2018-08-13T06:05:55.842Z,20.00
2018-08-13T06:08:27.922Z,22.60
2018-08-13T06:10:59.772Z,20.20
2018-08-13T06:13:31.596Z,24.20
2018-08-13T06:16:03.391Z,20.40
2018-08-13T06:18:35.243Z,20.40
2018-08-13T06:21:07.174Z,21.00
2018-08-13T06:23:39.349Z,21.40
2018-08-13T06:26:11.220Z,22.20
2018-08-13T06:28:43.622Z,19.20
2018-08-13T06:31:15.841Z,21.20
2018-08-13T06:33:49.424Z,20.00
2018-08-13T06:36:21.438Z,20.20
2018-08-13T06:38:53.566Z,21.60
2018-08-13T06:41:25.607Z,21.60
2018-08-13T06:43:57.693Z,20.80
2018-08-13T06:46:30.287Z,27.00
2018-08-13T06:49:03.664Z,27.80
2018-08-13T06:51:36.101Z,24.20
2018-08-13T06:54:08.465Z,22.60
2018-08-13T06:56:40.865Z,21.80
2018-08-13T06:59:13.641Z,22.00
2018-08-13T07:01:46.807Z,22.00
2018-08-13T07:04:19.717Z,26.20
2018-08-13T07:06:52.874Z,20.20
2018-08-13T07:09:25.134Z,23.80
2018-08-13T07:11:57.567Z,23.20
2018-08-13T07:14:30.079Z,23.80
2018-08-13T07:17:01.929Z,25.60
2018-08-13T07:19:34.304Z,24.60
2018-08-13T07:22:06.427Z,22.40
2018-08-13T07:24:39.000Z,22.40
2018-08-13T07:27:11.328Z,22.80
2018-08-13T07:29:44.122Z,21.20
2018-08-13T07:32:16.715Z,22.60
2018-08-13T07:34:48.830Z,21.00
2018-08-13T07:37:21.198Z,22.20
2018-08-13T07:39:53.358Z,22.60
2018-08-13T07:42:25.656Z,22.20
2018-08-13T07:44:57.894Z,21.40
2018-08-13T07:47:30.447Z,21.20
2018-08-13T07:50:03.241Z,20.00
2018-08-13T07:52:35.191Z,20.00
2018-08-13T07:55:08.755Z,19.80
2018-08-13T07:57:41.061Z,16.80
2018-08-13T08:00:15.164Z,19.20
2018-08-13T08:02:47.343Z,18.20
2018-08-13T08:05:19.548Z,18.20
2018-08-13T08:07:52.196Z,18.20
2018-08-13T08:10:25.665Z,19.20
2018-08-13T08:12:57.817Z,19.20
2018-08-13T08:15:30.185Z,19.00
2018-08-13T08:18:03.329Z,18.60
2018-08-13T08:20:35.790Z,17.80
2018-08-13T08:23:09.127Z,19.80
2018-08-13T08:25:41.442Z,19.00
2018-08-13T08:28:13.342Z,20.80
2018-08-13T08:30:45.205Z,21.20
2018-08-13T08:33:16.901Z,19.80
2018-08-13T08:35:48.746Z,20.60
2018-08-13T08:38:20.333Z,20.60
2018-08-13T08:40:52.434Z,22.60
2018-08-13T08:43:24.491Z,20.60
2018-08-13T08:45:56.704Z,21.60
2018-08-13T08:48:28.519Z,18.20
2018-08-13T08:51:00.968Z,21.00
2018-08-13T08:53:32.749Z,20.60
2018-08-13T08:56:04.676Z,19.40
2018-08-13T08:58:36.695Z,20.20
2018-08-13T09:01:08.685Z,20.20
2018-08-13T09:03:40.488Z,19.00
2018-08-13T09:06:12.296Z,18.80
2018-08-13T09:08:44.241Z,20.00
2018-08-13T09:11:15.813Z,19.60
2018-08-13T09:13:47.701Z,17.00
2018-08-13T09:16:19.700Z,20.20
2018-08-13T09:19:00.759Z,18.80
2018-08-13T09:21:37.091Z,15.20
2018-08-13T09:24:18.299Z,20.20
2018-08-13T09:26:59.570Z,18.20
2018-08-13T09:29:40.686Z,17.40
2018-08-13T09:32:27.308Z,17.40
2018-08-13T09:35:31.805Z,18.40
2018-08-13T09:38:04.343Z,18.00
2018-08-13T09:40:36.289Z,19.20
2018-08-13T09:43:08.286Z,20.40
2018-08-13T09:45:40.101Z,17.80
2018-08-13T09:48:12.501Z,21.40
2018-08-13T09:50:44.204Z,20.60
2018-08-13T09:53:17.555Z,20.80
2018-08-13T09:55:49.577Z,17.80
2018-08-13T09:58:21.779Z,14.80
2018-08-13T10:00:58.505Z,19.60
2018-08-13T10:03:31.682Z,21.20
2018-08-13T10:06:03.864Z,18.40
2018-08-13T10:08:35.712Z,18.20
2018-08-13T10:11:07.791Z,19.60
2018-08-13T10:13:39.674Z,20.60
2018-08-13T10:16:11.410Z,19.00
2018-08-13T10:18:43.748Z,19.60
2018-08-13T10:21:15.558Z,20.20
2018-08-13T10:23:47.486Z,20.00
2018-08-13T10:26:19.433Z,18.80
2018-08-13T10:28:51.381Z,17.20
2018-08-13T10:31:23.446Z,18.80
2018-08-13T10:33:55.295Z,18.80
2018-08-13T10:36:27.185Z,19.20
2018-08-13T10:39:01.909Z,20.20
2018-08-13T10:41:34.074Z,17.60
2018-08-13T10:44:07.693Z,18.20
2018-08-13T10:46:39.636Z,21.00
2018-08-13T10:49:11.621Z,20.80
2018-08-13T10:51:43.448Z,18.60
2018-08-13T10:54:15.681Z,16.20
2018-08-13T10:56:47.469Z,18.40
2018-08-13T10:59:19.430Z,17.80
2018-08-13T11:01:52.215Z,19.00
2018-08-13T11:04:24.440Z,22.00
2018-08-13T11:06:56.272Z,19.40
2018-08-13T11:09:30.045Z,21.20
2018-08-13T11:12:01.968Z,25.20
2018-08-13T11:14:33.793Z,22.80
2018-08-13T11:17:05.844Z,21.60
2018-08-13T11:19:38.032Z,22.60
2018-08-13T11:22:09.603Z,23.80
2018-08-13T11:24:41.402Z,25.20
2018-08-13T11:27:14.373Z,25.20
2018-08-13T11:29:49.361Z,24.80
2018-08-13T11:32:21.747Z,25.20
2018-08-13T11:34:53.376Z,26.20
2018-08-13T11:37:26.027Z,23.20
2018-08-13T11:39:57.946Z,25.20
2018-08-13T11:42:29.575Z,22.40
2018-08-13T11:45:01.604Z,22.20
2018-08-13T11:47:33.358Z,22.20
2018-08-13T11:50:05.751Z,19.40
2018-08-13T11:52:37.345Z,21.00
2018-08-13T11:55:09.212Z,23.20
2018-08-13T11:57:41.143Z,21.60
2018-08-13T12:00:13.633Z,21.20
2018-08-13T12:02:45.523Z,19.20
2018-08-13T12:05:17.724Z,19.20
2018-08-13T12:07:49.331Z,20.20
2018-08-13T12:10:21.430Z,20.20
2018-08-13T12:12:53.090Z,21.40
2018-08-13T12:15:24.964Z,21.60
2018-08-13T12:17:56.582Z,23.40
2018-08-13T12:20:28.709Z,21.60
2018-08-13T12:23:00.451Z,21.60
2018-08-13T12:25:32.847Z,21.20
2018-08-13T12:28:04.779Z,19.20
2018-08-13T12:30:36.904Z,21.00
2018-08-13T12:33:08.864Z,19.40
2018-08-13T12:35:41.486Z,23.60
2018-08-13T12:38:13.350Z,23.20
2018-08-13T12:40:45.528Z,23.20
2018-08-13T12:43:17.226Z,23.20
2018-08-13T12:45:49.362Z,21.00
2018-08-13T12:48:21.090Z,23.80
2018-08-13T12:50:53.609Z,24.60
2018-08-13T12:53:25.129Z,24.40
2018-08-13T12:55:57.008Z,28.00
2018-08-13T12:58:28.900Z,24.20
2018-08-13T13:01:07.026Z,23.20
2018-08-13T13:03:38.940Z,25.80
2018-08-13T13:06:10.970Z,26.60
2018-08-13T13:08:42.608Z,25.20
2018-08-13T13:11:14.742Z,23.00
2018-08-13T13:13:46.294Z,23.00
2018-08-13T13:16:18.446Z,21.00
2018-08-13T13:18:50.078Z,23.20
2018-08-13T13:21:21.990Z,19.40
2018-08-13T13:23:53.845Z,21.40
2018-08-13T13:26:25.616Z,19.80
2018-08-13T13:28:57.510Z,18.60
2018-08-13T13:31:29.501Z,19.20
2018-08-13T13:34:01.315Z,19.80
2018-08-13T13:36:33.377Z,16.60
2018-08-13T13:39:05.777Z,18.60
2018-08-13T13:41:37.752Z,22.00
2018-08-13T13:44:09.674Z,22.40
2018-08-13T13:46:42.270Z,25.60
2018-08-13T13:49:13.900Z,29.00
2018-08-13T13:51:45.960Z,27.00
2018-08-13T13:54:17.911Z,29.20
2018-08-13T13:56:49.930Z,26.20
2018-08-13T13:59:21.540Z,26.20
2018-08-13T14:01:53.424Z,27.00
2018-08-13T14:04:25.374Z,23.60
2018-08-13T14:06:57.456Z,27.00
2018-08-13T14:09:29.182Z,26.40
2018-08-13T14:12:01.087Z,28.60
2018-08-13T14:14:33.105Z,28.00
2018-08-13T14:17:04.972Z,27.00
2018-08-13T14:19:36.740Z,31.00
2018-08-13T14:22:08.551Z,28.00
2018-08-13T14:24:40.240Z,29.00
2018-08-13T14:27:12.102Z,29.00
2018-08-13T14:29:44.753Z,31.60
2018-08-13T14:32:16.446Z,27.00
2018-08-13T14:34:48.739Z,31.00
2018-08-13T14:37:20.560Z,30.60
2018-08-13T14:39:52.648Z,31.00
2018-08-13T14:42:24.520Z,29.80
2018-08-13T14:44:56.350Z,29.60
2018-08-13T14:47:28.569Z,31.00
2018-08-13T14:50:00.452Z,29.60
2018-08-13T14:52:32.340Z,29.80
2018-08-13T14:55:04.401Z,28.40
2018-08-13T14:57:36.299Z,28.60
2018-08-13T15:00:26.318Z,30.00
2018-08-13T15:02:58.111Z,29.80
2018-08-13T15:05:29.897Z,27.80
2018-08-13T15:08:01.562Z,28.00
2018-08-13T15:10:33.610Z,28.80
2018-08-13T15:13:05.824Z,28.00
2018-08-13T15:15:37.906Z,27.60
2018-08-13T15:18:09.934Z,26.00
2018-08-13T15:20:41.643Z,27.80
2018-08-13T15:23:13.527Z,28.00
2018-08-13T15:25:45.292Z,26.00
2018-08-13T15:28:17.654Z,26.00
2018-08-13T15:30:49.735Z,26.60
2018-08-13T15:33:21.613Z,26.00
2018-08-13T15:35:53.438Z,25.40
2018-08-13T15:38:25.043Z,26.40
2018-08-13T15:40:56.874Z,24.40
2018-08-13T15:43:28.959Z,25.20
2018-08-13T15:46:01.936Z,24.60
2018-08-13T15:48:33.905Z,24.20
2018-08-13T15:51:05.593Z,24.00
2018-08-13T15:53:37.414Z,23.00
2018-08-13T15:56:09.695Z,24.00
2018-08-13T15:58:41.974Z,23.00
2018-08-13T16:01:13.984Z,22.00
2018-08-13T16:03:46.021Z,22.60
2018-08-13T16:06:17.752Z,22.00
2018-08-13T16:08:49.813Z,23.20
2018-08-13T16:11:21.544Z,21.60
2018-08-13T16:13:53.642Z,21.40
2018-08-13T16:16:25.626Z,23.20
2018-08-13T16:18:57.415Z,21.00
2018-08-13T16:21:28.877Z,22.00
2018-08-13T16:24:00.706Z,20.20
2018-08-13T16:26:32.194Z,21.00
2018-08-13T16:29:04.084Z,21.80
2018-08-13T16:31:37.143Z,24.00
2018-08-13T16:34:09.351Z,21.20
2018-08-13T16:36:41.303Z,20.80
2018-08-13T16:39:13.867Z,20.00
2018-08-13T16:41:45.438Z,20.40
2018-08-13T16:44:17.501Z,21.60
2018-08-13T16:46:49.654Z,21.80
2018-08-13T16:49:21.635Z,22.00
2018-08-13T16:51:53.473Z,21.00
2018-08-13T16:54:25.548Z,20.20
2018-08-13T16:56:57.407Z,20.00
2018-08-13T16:59:29.539Z,22.40
2018-08-13T17:02:01.163Z,22.00
2018-08-13T17:04:33.012Z,22.00
2018-08-13T17:07:05.171Z,22.00
2018-08-13T17:09:37.060Z,23.00
2018-08-13T17:12:09.323Z,23.20
2018-08-13T17:14:41.562Z,21.00
2018-08-13T17:17:13.165Z,20.80
2018-08-13T17:19:44.993Z,21.80
2018-08-13T17:22:19.004Z,21.60
2018-08-13T17:24:51.889Z,22.20
2018-08-13T17:27:24.902Z,21.40
2018-08-13T17:29:57.366Z,22.00
2018-08-13T17:32:30.533Z,22.00
2018-08-13T17:35:03.365Z,21.80
2018-08-13T17:37:35.216Z,21.80
2018-08-13T17:40:07.541Z,20.80
2018-08-13T17:42:40.101Z,19.80
2018-08-13T17:45:12.117Z,20.00
2018-08-13T17:47:44.361Z,19.80
2018-08-13T17:50:17.640Z,21.00
2018-08-13T17:52:49.570Z,19.20
2018-08-13T17:55:21.764Z,18.60
2018-08-13T17:57:53.331Z,19.40
2018-08-13T18:00:26.994Z,20.20
2018-08-13T18:02:58.940Z,16.20
2018-08-13T18:05:30.856Z,14.00
2018-08-13T18:08:02.676Z,16.00
2018-08-13T18:10:35.461Z,18.20
2018-08-13T18:13:09.096Z,17.40
2018-08-13T18:15:42.515Z,16.20
2018-08-13T18:18:14.766Z,16.80
2018-08-13T18:20:47.033Z,16.20
2018-08-13T18:23:19.578Z,16.20
2018-08-13T18:25:52.517Z,18.00
2018-08-13T18:28:27.194Z,17.60
2018-08-13T18:31:00.615Z,17.00
2018-08-13T18:33:34.474Z,15.60
2018-08-13T18:36:07.166Z,16.60
2018-08-13T18:38:39.449Z,17.00
2018-08-13T18:41:14.643Z,16.80
2018-08-13T18:43:46.530Z,18.40
2018-08-13T18:46:18.530Z,17.40
2018-08-13T18:48:51.244Z,17.80
2018-08-13T18:51:23.640Z,18.40
2018-08-13T18:53:55.446Z,16.80
2018-08-13T18:56:27.970Z,16.40
2018-08-13T18:58:59.845Z,16.60
2018-08-13T19:01:32.448Z,18.20
2018-08-13T19:04:05.272Z,17.00
2018-08-13T19:06:38.512Z,15.20
2018-08-13T19:09:11.092Z,17.40
2018-08-13T19:11:43.423Z,15.80
2018-08-13T19:14:15.229Z,18.00
2018-08-13T19:16:47.966Z,18.40
2018-08-13T19:19:20.809Z,14.80
2018-08-13T19:21:53.159Z,18.40
2018-08-13T19:24:26.016Z,16.20
2018-08-13T19:26:59.174Z,16.40
2018-08-13T19:29:32.011Z,17.00
2018-08-13T19:32:03.925Z,16.60
2018-08-13T19:34:36.654Z,16.20
2018-08-13T19:37:09.004Z,15.00
2018-08-13T19:39:41.698Z,17.40
2018-08-13T19:42:14.071Z,17.60
2018-08-13T19:47:37.235Z,17.60
2018-08-13T19:50:11.675Z,16.20
2018-08-13T19:52:45.190Z,17.00
2018-08-13T19:55:17.626Z,16.00
2018-08-13T19:57:50.724Z,17.00
2018-08-13T20:00:26.695Z,15.00
2018-08-13T20:02:59.847Z,18.00
2018-08-13T20:05:32.303Z,17.60
2018-08-13T20:10:54.443Z,18.00
2018-08-13T20:13:27.490Z,16.00
2018-08-13T20:16:00.144Z,18.80
2018-08-13T20:18:33.135Z,17.60
2018-08-13T20:21:06.358Z,16.80
2018-08-13T20:23:38.697Z,17.20
2018-08-13T20:26:11.616Z,17.60
2018-08-13T20:28:43.803Z,15.20
2018-08-13T20:31:18.322Z,16.60
2018-08-13T20:33:51.030Z,17.80
2018-08-13T20:36:23.493Z,15.80
2018-08-13T20:38:56.085Z,16.80
2018-08-13T20:41:28.247Z,17.80
2018-08-13T20:44:00.920Z,17.00
2018-08-13T20:46:34.308Z,16.60
2018-08-13T20:49:06.700Z,18.20
2018-08-13T20:51:38.773Z,13.80
2018-08-13T20:54:11.147Z,15.20
2018-08-13T20:56:43.443Z,17.80
2018-08-13T20:59:15.879Z,20.00
2018-08-13T21:01:48.205Z,20.80
2018-08-13T21:04:20.407Z,18.00
2018-08-13T21:06:52.302Z,18.20
2018-08-13T21:09:24.993Z,17.20
2018-08-13T21:11:57.761Z,17.00
2018-08-13T21:14:30.119Z,18.00
2018-08-13T21:17:03.489Z,17.60
2018-08-13T21:19:36.191Z,17.00
2018-08-13T21:22:08.947Z,18.40
2018-08-13T21:24:42.300Z,16.40
2018-08-13T21:27:14.903Z,14.20
2018-08-13T21:29:46.838Z,17.40
2018-08-13T21:32:19.327Z,17.20
2018-08-13T21:34:52.151Z,18.00
2018-08-13T21:37:24.317Z,19.40
2018-08-13T21:39:56.556Z,17.00
2018-08-13T21:42:29.164Z,16.80
2018-08-13T21:45:01.704Z,17.20
2018-08-13T21:47:35.673Z,19.00
2018-08-13T21:50:10.675Z,19.40
2018-08-13T21:52:42.492Z,18.20
2018-08-13T21:55:14.357Z,16.60
2018-08-13T21:57:46.132Z,12.60
2018-08-13T22:00:25.410Z,17.20
2018-08-13T22:02:58.178Z,16.60
2018-08-13T22:05:30.220Z,17.40
2018-08-13T22:08:02.003Z,19.60
2018-08-13T22:10:33.926Z,18.40
2018-08-13T22:13:05.795Z,18.00
2018-08-13T22:15:37.811Z,19.80
2018-08-13T22:18:10.370Z,20.00
2018-08-13T22:20:42.399Z,19.00
2018-08-13T22:23:14.079Z,20.00
2018-08-13T22:25:48.189Z,19.20
2018-08-13T22:28:20.676Z,19.60
2018-08-13T22:30:52.791Z,19.80
2018-08-13T22:33:25.535Z,19.40
2018-08-13T22:35:57.797Z,17.80
2018-08-13T22:38:29.740Z,19.00
2018-08-13T22:41:01.789Z,19.00
2018-08-13T22:43:33.601Z,16.40
2018-08-13T22:46:05.579Z,15.80
2018-08-13T22:48:37.850Z,18.00
2018-08-13T22:51:09.711Z,17.00
2018-08-13T22:53:41.900Z,16.40
2018-08-13T22:56:14.277Z,18.80
2018-08-13T22:58:46.137Z,16.00
2018-08-13T23:01:17.839Z,20.00
2018-08-13T23:03:49.723Z,20.00
2018-08-13T23:06:21.838Z,18.40
2018-08-13T23:08:53.570Z,18.40
2018-08-13T23:11:25.641Z,16.40
2018-08-13T23:13:58.125Z,16.80
2018-08-13T23:16:30.102Z,16.60
2018-08-13T23:19:01.864Z,16.00
2018-08-13T23:21:33.526Z,17.80
2018-08-13T23:24:05.404Z,16.00
2018-08-13T23:26:37.370Z,17.80
2018-08-13T23:29:09.227Z,17.40
2018-08-13T23:31:41.587Z,17.40
2018-08-13T23:34:13.489Z,16.20
2018-08-13T23:36:45.649Z,16.00
2018-08-13T23:39:17.662Z,17.80
2018-08-13T23:41:49.743Z,16.80
2018-08-13T23:44:21.736Z,17.20
2018-08-13T23:46:53.863Z,18.20
2018-08-13T23:49:26.161Z,17.40
2018-08-13T23:51:58.231Z,17.40
2018-08-13T23:54:30.228Z,18.40
2018-08-13T23:57:02.493Z,18.40
2018-08-13T23:59:36.063Z,14.80
